Guatemala City, Guatemala
Current Conditions -  °F | °C
As of 6:00 PM on Wednesday 22 Oct 2014 (Local Time) from MGGT Reporting Station
Rain Showers Rain Showers  
Wind Chill: 66°   Ceiling: 20000
Heat Index: 66°   Visibility: 5mi
Dew Point: 63°   Wind: 7mph
Humidity: 88%   Direction: 190°S
Pressure: 30.15"   Gusts: NA
Location:  14.58°N, 90.52°W
Report Text: MGGT 230000Z 19006KT 8000 VCSH FEW015 BKN200 19/17 Q1021 A3015 FEW080PCPN SSE/S/SSW
Loading
Personal Weather Stations






























Interactive Weather Map New forecast layout! Learn more

10-Day Weather Forecast

Advertisements
Track Severe Weather on mobile